createdAt,value
2018-05-27T14:17:24.585Z,87.90
2018-05-27T14:19:52.393Z,88.10
2018-05-27T14:22:19.236Z,88.10
2018-05-27T14:24:45.878Z,87.80
2018-05-27T14:27:12.664Z,88.60
2018-05-27T14:29:40.278Z,86.80
2018-05-27T14:32:07.038Z,86.80
2018-05-27T14:34:33.941Z,87.90
2018-05-27T14:37:00.518Z,90.00
2018-05-27T14:39:27.229Z,89.60
2018-05-27T14:41:54.074Z,90.00
2018-05-27T14:44:20.712Z,89.10
2018-05-27T14:46:47.300Z,88.40
2018-05-27T14:49:14.633Z,89.90
2018-05-27T14:51:41.316Z,89.90
2018-05-27T14:54:07.979Z,90.20
2018-05-27T14:56:34.793Z,89.40
2018-05-27T14:59:01.392Z,90.00
2018-05-27T15:01:28.917Z,90.70
2018-05-27T15:03:55.655Z,90.70
2018-05-27T15:06:22.366Z,90.30
2018-05-27T15:08:49.006Z,89.50
2018-05-27T15:11:15.673Z,89.50
2018-05-27T15:13:42.596Z,90.00
2018-05-27T15:16:09.205Z,90.30
2018-05-27T15:18:36.739Z,89.60
2018-05-27T15:21:03.751Z,89.50
2018-05-27T15:23:30.701Z,89.20
2018-05-27T15:25:58.074Z,89.40
2018-05-27T15:28:24.688Z,89.40
2018-05-27T15:30:51.319Z,90.00
2018-05-27T15:33:17.938Z,89.60
2018-05-27T15:35:44.540Z,89.70
2018-05-27T15:38:11.236Z,90.20
2018-05-27T15:40:37.987Z,90.20
2018-05-27T15:43:04.718Z,90.00
2018-05-27T15:45:31.372Z,90.10
2018-05-27T15:47:58.103Z,90.90
2018-05-27T15:50:24.836Z,91.60
2018-05-27T15:52:51.569Z,91.40
2018-05-27T15:55:18.314Z,91.50
2018-05-27T15:57:44.905Z,91.50
2018-05-27T16:00:12.277Z,91.60
2018-05-27T16:02:38.939Z,91.60
2018-05-27T16:05:05.682Z,91.80
2018-05-27T16:07:32.523Z,92.00
2018-05-27T16:09:59.265Z,91.70
2018-05-27T16:12:25.978Z,91.90
2018-05-27T16:14:52.719Z,92.30
2018-05-27T16:17:19.354Z,92.60
2018-05-27T16:19:46.016Z,93.20
2018-05-27T16:22:12.721Z,93.30
2018-05-27T16:24:40.114Z,93.40
2018-05-27T16:27:06.761Z,93.40
2018-05-27T16:29:33.455Z,93.50
2018-05-27T16:32:00.122Z,93.80
2018-05-27T16:34:26.832Z,93.70
2018-05-27T16:36:53.806Z,93.50
2018-05-27T16:39:20.525Z,93.40
2018-05-27T16:41:47.259Z,94.10
2018-05-27T16:44:13.995Z,94.30
2018-05-27T16:46:40.673Z,94.00
2018-05-27T16:49:07.403Z,93.70
2018-05-27T16:51:34.042Z,93.60
2018-05-27T16:54:00.884Z,93.80
2018-05-27T16:56:27.522Z,93.90
2018-05-27T16:58:54.131Z,93.70
2018-05-27T17:01:20.818Z,93.70
2018-05-27T17:03:47.533Z,93.50
2018-05-27T17:06:14.129Z,93.30
2018-05-27T17:08:41.512Z,93.30
2018-05-27T17:11:08.161Z,93.30
2018-05-27T17:13:34.904Z,93.50
2018-05-27T17:16:01.542Z,93.70
2018-05-27T17:18:28.281Z,94.00
2018-05-27T17:20:55.061Z,94.00
2018-05-27T17:23:21.650Z,93.70
2018-05-27T17:25:48.394Z,93.90
2018-05-27T17:28:15.157Z,93.70
2018-05-27T17:30:42.695Z,94.10
2018-05-27T17:33:09.433Z,94.00
2018-05-27T17:35:36.161Z,93.90
2018-05-27T17:38:02.996Z,93.90
2018-05-27T17:40:29.653Z,93.90
2018-05-27T17:42:56.399Z,93.90
2018-05-27T17:45:23.131Z,94.20
2018-05-27T17:47:49.872Z,94.50
2018-05-27T17:50:16.717Z,94.50
2018-05-27T17:52:43.313Z,94.50
2018-05-27T17:55:09.966Z,94.50
2018-05-27T17:57:36.702Z,94.50
2018-05-27T18:00:03.467Z,94.60
2018-05-27T18:02:30.110Z,94.50
2018-05-27T18:04:56.716Z,94.50
2018-05-27T18:07:23.387Z,94.60
2018-05-27T18:09:50.228Z,94.70
2018-05-27T18:12:17.066Z,94.80
2018-05-27T18:14:43.804Z,95.20
2018-05-27T18:17:10.426Z,95.40
2018-05-27T18:19:37.281Z,95.10
2018-05-27T18:22:03.958Z,95.20
2018-05-27T18:24:31.556Z,95.40
2018-05-27T18:26:58.199Z,95.40
2018-05-27T18:29:24.977Z,95.60
2018-05-27T18:31:51.813Z,95.70
2018-05-27T18:34:18.548Z,95.90
2018-05-27T18:36:45.164Z,95.50
2018-05-27T18:39:11.874Z,95.90
2018-05-27T18:41:41.520Z,95.40
2018-05-27T18:44:08.178Z,95.40
2018-05-27T18:46:34.901Z,95.50
2018-05-27T18:49:01.540Z,95.60
2018-05-27T18:51:28.284Z,96.40
2018-05-27T18:53:55.123Z,97.00
2018-05-27T18:56:21.864Z,95.80
2018-05-27T18:58:48.463Z,96.20
2018-05-27T19:01:15.135Z,96.00
2018-05-27T19:03:41.761Z,96.60
2018-05-27T19:06:08.491Z,96.90
2018-05-27T19:08:35.150Z,96.90
2018-05-27T19:11:01.787Z,97.10
2018-05-27T19:13:28.412Z,97.30
2018-05-27T19:15:55.060Z,96.80
2018-05-27T19:18:21.680Z,96.80
2018-05-27T19:20:48.339Z,96.50
2018-05-27T19:23:15.071Z,96.30
2018-05-27T19:25:41.789Z,96.60
2018-05-27T19:28:08.556Z,96.50
2018-05-27T19:30:35.400Z,96.30
2018-05-27T19:33:02.008Z,96.50
2018-05-27T19:35:28.648Z,96.50
2018-05-27T19:37:55.279Z,96.50
2018-05-27T19:40:21.891Z,96.40
2018-05-27T19:42:49.406Z,96.80
2018-05-27T19:45:16.126Z,96.70
2018-05-27T19:47:42.761Z,96.50
2018-05-27T19:50:09.520Z,96.50
2018-05-27T19:52:36.362Z,96.50
2018-05-27T19:55:03.104Z,96.30
2018-05-27T19:57:29.742Z,97.00
2018-05-27T19:59:56.596Z,97.10
2018-05-27T20:02:23.300Z,97.40
2018-05-27T20:04:49.961Z,97.60
2018-05-27T20:07:17.601Z,98.20
2018-05-27T20:09:44.379Z,98.20
2018-05-27T20:12:10.957Z,98.60
2018-05-27T20:14:38.556Z,98.50
2018-05-27T20:17:05.296Z,98.50
2018-05-27T20:19:31.896Z,98.50
2018-05-27T20:21:58.553Z,98.90
2018-05-27T20:24:25.275Z,99.60
2018-05-27T20:26:51.951Z,99.70
2018-05-27T20:29:18.572Z,99.90
2018-05-27T20:31:45.328Z,99.90
2018-05-27T20:34:11.916Z,99.90
2018-05-27T20:36:39.421Z,99.50
2018-05-27T20:39:06.158Z,99.50
2018-05-27T20:41:33.002Z,99.60
2018-05-27T20:43:59.738Z,99.20
2018-05-27T20:46:26.476Z,99.60
2018-05-27T20:48:53.116Z,99.80
2018-05-27T20:51:19.702Z,99.90
2018-05-27T20:53:47.314Z,99.20
2018-05-27T20:56:13.932Z,99.20
2018-05-27T20:58:40.590Z,98.90
2018-05-27T21:01:07.400Z,98.80
2018-05-27T21:03:34.153Z,98.70
2018-05-27T21:06:00.805Z,98.70
2018-05-27T21:08:27.656Z,98.70
2018-05-27T21:10:54.343Z,98.40
2018-05-27T21:13:21.744Z,98.50
2018-05-27T21:15:48.385Z,98.50
2018-05-27T21:18:15.093Z,98.50
2018-05-27T21:20:41.733Z,99.00
2018-05-27T21:23:08.369Z,99.60
2018-05-27T21:25:34.989Z,99.90
2018-05-27T21:28:02.294Z,99.90
2018-05-27T21:30:28.919Z,99.90
2018-05-27T21:32:55.637Z,99.90
2018-05-27T21:35:22.299Z,99.90
2018-05-27T21:37:48.937Z,99.90
2018-05-27T21:40:15.573Z,99.90
2018-05-27T21:42:42.245Z,99.90
2018-05-27T21:45:09.162Z,99.90
2018-05-27T21:47:35.872Z,99.90
2018-05-27T21:50:02.609Z,99.90
2018-05-27T21:52:29.247Z,99.90
2018-05-27T21:54:55.867Z,99.90
2018-05-27T21:57:23.363Z,99.90
2018-05-27T21:59:50.072Z,99.90
2018-05-27T22:02:16.717Z,99.90
2018-05-27T22:04:43.344Z,99.90
2018-05-27T22:07:10.018Z,99.90
2018-05-27T22:09:36.628Z,99.90
2018-05-27T22:12:03.290Z,99.90
2018-05-27T22:14:29.900Z,99.90
2018-05-27T22:16:56.539Z,99.90
2018-05-27T22:19:23.201Z,99.90
2018-05-27T22:21:49.847Z,99.90
2018-05-27T22:24:16.578Z,99.90
2018-05-27T22:26:43.324Z,99.90
2018-05-27T22:29:10.033Z,99.90
2018-05-27T22:31:36.704Z,99.90
2018-05-27T22:34:03.438Z,99.90
2018-05-27T22:36:30.177Z,99.90
2018-05-27T22:38:56.921Z,99.90
2018-05-27T22:41:23.655Z,99.90
2018-05-27T22:43:50.300Z,99.90
2018-05-27T22:46:17.008Z,99.90
2018-05-27T22:48:43.644Z,99.90
2018-05-27T22:51:10.282Z,99.90
2018-05-27T22:53:36.929Z,99.90
2018-05-27T22:56:03.687Z,99.90
2018-05-27T22:58:30.423Z,99.90
2018-05-27T23:00:57.165Z,99.90
2018-05-27T23:03:23.875Z,99.90
2018-05-27T23:05:50.535Z,99.90
2018-05-27T23:08:17.257Z,99.90
2018-05-27T23:10:43.917Z,99.90
2018-05-27T23:13:10.581Z,99.90
2018-05-27T23:15:37.395Z,99.90
2018-05-27T23:18:03.987Z,99.90
2018-05-27T23:20:31.364Z,99.90
2018-05-27T23:22:57.974Z,99.90
2018-05-27T23:25:25.406Z,99.90
2018-05-27T23:27:52.121Z,99.90
2018-05-27T23:30:18.713Z,99.90
2018-05-27T23:32:46.204Z,99.90
2018-05-27T23:35:12.852Z,99.90
2018-05-27T23:37:39.695Z,99.90
2018-05-27T23:40:06.327Z,99.90
2018-05-27T23:42:33.045Z,99.90
2018-05-27T23:44:59.922Z,99.90
2018-05-27T23:47:26.653Z,99.90
2018-05-27T23:49:53.366Z,99.90
2018-05-27T23:52:20.236Z,99.90
2018-05-27T23:54:46.972Z,99.90
2018-05-27T23:57:13.921Z,99.90
2018-05-27T23:59:40.763Z,99.90
